sensor_id;sensor_type;location;lat;lon;timestamp;P1;durP1;ratioP1;P2;durP2;ratioP2
15624;SDS011;7912;51.376;6.126;2022-09-17T00:01:39;5.80;;;2.50;;
15624;SDS011;7912;51.376;6.126;2022-09-17T00:04:06;5.17;;;2.30;;
15624;SDS011;7912;51.376;6.126;2022-09-17T00:06:35;5.10;;;2.27;;
15624;SDS011;7912;51.376;6.126;2022-09-17T00:09:03;3.33;;;2.43;;
15624;SDS011;7912;51.376;6.126;2022-09-17T00:11:34;8.07;;;2.60;;
15624;SDS011;7912;51.376;6.126;2022-09-17T00:14:05;5.10;;;2.47;;
15624;SDS011;7912;51.376;6.126;2022-09-17T00:16:37;5.00;;;2.50;;
15624;SDS011;7912;51.376;6.126;2022-09-17T00:19:09;5.80;;;2.50;;
15624;SDS011;7912;51.376;6.126;2022-09-17T00:21:44;5.03;;;2.23;;
15624;SDS011;7912;51.376;6.126;2022-09-17T00:24:13;3.67;;;2.40;;
15624;SDS011;7912;51.376;6.126;2022-09-17T00:26:42;4.90;;;2.60;;
15624;SDS011;7912;51.376;6.126;2022-09-17T00:29:09;4.77;;;2.90;;
15624;SDS011;7912;51.376;6.126;2022-09-17T00:31:38;3.13;;;2.30;;
15624;SDS011;7912;51.376;6.126;2022-09-17T00:34:06;9.57;;;2.80;;
15624;SDS011;7912;51.376;6.126;2022-09-17T00:36:34;6.20;;;2.60;;
15624;SDS011;7912;51.376;6.126;2022-09-17T00:39:03;5.13;;;2.30;;
15624;SDS011;7912;51.376;6.126;2022-09-17T00:41:35;9.87;;;2.97;;
15624;SDS011;7912;51.376;6.126;2022-09-17T00:47:32;6.30;;;2.60;;
15624;SDS011;7912;51.376;6.126;2022-09-17T00:50:22;5.43;;;2.70;;
15624;SDS011;7912;51.376;6.126;2022-09-17T00:53:15;4.57;;;2.57;;
15624;SDS011;7912;51.376;6.126;2022-09-17T00:55:48;6.87;;;2.40;;
15624;SDS011;7912;51.376;6.126;2022-09-17T00:58:35;5.73;;;2.40;;
15624;SDS011;7912;51.376;6.126;2022-09-17T01:01:06;5.03;;;2.43;;
15624;SDS011;7912;51.376;6.126;2022-09-17T01:03:33;7.37;;;2.40;;
15624;SDS011;7912;51.376;6.126;2022-09-17T01:26:44;7.37;;;2.50;;
15624;SDS011;7912;51.376;6.126;2022-09-17T01:29:46;6.57;;;2.40;;
15624;SDS011;7912;51.376;6.126;2022-09-17T01:41:04;5.67;;;2.20;;
15624;SDS011;7912;51.376;6.126;2022-09-17T01:43:37;3.70;;;1.90;;
15624;SDS011;7912;51.376;6.126;2022-09-17T01:46:29;7.37;;;2.27;;
15624;SDS011;7912;51.376;6.126;2022-09-17T01:49:05;5.37;;;2.50;;
15624;SDS011;7912;51.376;6.126;2022-09-17T01:51:37;4.17;;;1.70;;
15624;SDS011;7912;51.376;6.126;2022-09-17T01:54:16;8.23;;;2.23;;
15624;SDS011;7912;51.376;6.126;2022-09-17T01:56:58;5.60;;;2.13;;
15624;SDS011;7912;51.376;6.126;2022-09-17T02:05:13;5.23;;;2.07;;
15624;SDS011;7912;51.376;6.126;2022-09-17T02:08:03;7.70;;;2.30;;
15624;SDS011;7912;51.376;6.126;2022-09-17T02:10:49;6.00;;;2.00;;
15624;SDS011;7912;51.376;6.126;2022-09-17T02:13:35;5.23;;;2.20;;
15624;SDS011;7912;51.376;6.126;2022-09-17T02:16:18;3.60;;;1.80;;
15624;SDS011;7912;51.376;6.126;2022-09-17T02:23:59;5.40;;;1.77;;
15624;SDS011;7912;51.376;6.126;2022-09-17T02:27:02;4.60;;;1.77;;
15624;SDS011;7912;51.376;6.126;2022-09-17T02:29:57;4.97;;;1.87;;
15624;SDS011;7912;51.376;6.126;2022-09-17T02:32:24;7.80;;;2.27;;
15624;SDS011;7912;51.376;6.126;2022-09-17T02:34:51;6.97;;;2.10;;
15624;SDS011;7912;51.376;6.126;2022-09-17T02:37:18;6.43;;;2.00;;
15624;SDS011;7912;51.376;6.126;2022-09-17T02:39:45;3.57;;;1.60;;
15624;SDS011;7912;51.376;6.126;2022-09-17T02:53:48;5.90;;;1.90;;
15624;SDS011;7912;51.376;6.126;2022-09-17T03:02:19;6.03;;;1.90;;
15624;SDS011;7912;51.376;6.126;2022-09-17T03:04:53;5.50;;;1.70;;
15624;SDS011;7912;51.376;6.126;2022-09-17T03:07:22;7.03;;;2.03;;
15624;SDS011;7912;51.376;6.126;2022-09-17T03:09:50;7.20;;;1.90;;
15624;SDS011;7912;51.376;6.126;2022-09-17T03:12:17;7.07;;;2.13;;
15624;SDS011;7912;51.376;6.126;2022-09-17T03:14:44;4.37;;;1.60;;
15624;SDS011;7912;51.376;6.126;2022-09-17T03:17:11;7.47;;;1.83;;
15624;SDS011;7912;51.376;6.126;2022-09-17T03:19:40;5.60;;;1.90;;
15624;SDS011;7912;51.376;6.126;2022-09-17T03:22:07;5.90;;;1.90;;
15624;SDS011;7912;51.376;6.126;2022-09-17T03:24:35;6.80;;;2.33;;
15624;SDS011;7912;51.376;6.126;2022-09-17T03:27:02;4.10;;;1.80;;
15624;SDS011;7912;51.376;6.126;2022-09-17T03:29:29;6.53;;;2.27;;
15624;SDS011;7912;51.376;6.126;2022-09-17T03:31:56;5.10;;;1.70;;
15624;SDS011;7912;51.376;6.126;2022-09-17T03:34:24;5.33;;;1.77;;
15624;SDS011;7912;51.376;6.126;2022-09-17T03:36:51;7.27;;;1.90;;
15624;SDS011;7912;51.376;6.126;2022-09-17T03:39:19;4.43;;;1.90;;
15624;SDS011;7912;51.376;6.126;2022-09-17T03:41:46;7.50;;;2.17;;
15624;SDS011;7912;51.376;6.126;2022-09-17T03:44:13;5.10;;;1.53;;
15624;SDS011;7912;51.376;6.126;2022-09-17T03:46:44;5.60;;;1.80;;
15624;SDS011;7912;51.376;6.126;2022-09-17T03:49:12;5.60;;;1.77;;
15624;SDS011;7912;51.376;6.126;2022-09-17T03:51:39;5.27;;;1.70;;
15624;SDS011;7912;51.376;6.126;2022-09-17T03:54:06;6.10;;;1.90;;
15624;SDS011;7912;51.376;6.126;2022-09-17T03:56:34;6.67;;;1.90;;
15624;SDS011;7912;51.376;6.126;2022-09-17T03:59:01;5.13;;;1.80;;
15624;SDS011;7912;51.376;6.126;2022-09-17T04:01:29;4.90;;;2.07;;
15624;SDS011;7912;51.376;6.126;2022-09-17T04:03:56;3.87;;;1.80;;
15624;SDS011;7912;51.376;6.126;2022-09-17T04:06:23;6.50;;;1.73;;
15624;SDS011;7912;51.376;6.126;2022-09-17T04:08:51;5.20;;;1.50;;
15624;SDS011;7912;51.376;6.126;2022-09-17T04:11:18;5.27;;;2.03;;
15624;SDS011;7912;51.376;6.126;2022-09-17T04:13:46;5.07;;;1.90;;
15624;SDS011;7912;51.376;6.126;2022-09-17T04:16:13;5.87;;;2.27;;
15624;SDS011;7912;51.376;6.126;2022-09-17T04:18:40;4.67;;;1.60;;
15624;SDS011;7912;51.376;6.126;2022-09-17T04:21:07;6.80;;;2.07;;
15624;SDS011;7912;51.376;6.126;2022-09-17T04:23:35;4.27;;;1.83;;
15624;SDS011;7912;51.376;6.126;2022-09-17T04:26:02;4.53;;;1.60;;
15624;SDS011;7912;51.376;6.126;2022-09-17T04:28:29;3.57;;;1.53;;
15624;SDS011;7912;51.376;6.126;2022-09-17T04:30:57;6.07;;;1.93;;
15624;SDS011;7912;51.376;6.126;2022-09-17T04:33:24;4.83;;;1.87;;
15624;SDS011;7912;51.376;6.126;2022-09-17T04:35:51;5.70;;;1.80;;
15624;SDS011;7912;51.376;6.126;2022-09-17T04:38:19;5.83;;;2.10;;
15624;SDS011;7912;51.376;6.126;2022-09-17T04:40:47;5.43;;;1.93;;
15624;SDS011;7912;51.376;6.126;2022-09-17T04:43:15;4.10;;;1.73;;
15624;SDS011;7912;51.376;6.126;2022-09-17T04:45:46;5.00;;;1.90;;
15624;SDS011;7912;51.376;6.126;2022-09-17T04:48:15;7.30;;;2.20;;
15624;SDS011;7912;51.376;6.126;2022-09-17T04:50:42;5.90;;;2.10;;
15624;SDS011;7912;51.376;6.126;2022-09-17T04:53:09;6.27;;;1.90;;
15624;SDS011;7912;51.376;6.126;2022-09-17T04:55:37;6.00;;;1.70;;
15624;SDS011;7912;51.376;6.126;2022-09-17T04:58:05;8.87;;;1.70;;
15624;SDS011;7912;51.376;6.126;2022-09-17T05:00:32;5.13;;;1.67;;
15624;SDS011;7912;51.376;6.126;2022-09-17T05:03:00;6.13;;;2.10;;
15624;SDS011;7912;51.376;6.126;2022-09-17T05:05:28;5.60;;;1.70;;
15624;SDS011;7912;51.376;6.126;2022-09-17T05:07:55;4.40;;;1.80;;
15624;SDS011;7912;51.376;6.126;2022-09-17T05:10:23;4.90;;;1.57;;
15624;SDS011;7912;51.376;6.126;2022-09-17T05:12:51;5.17;;;1.70;;
15624;SDS011;7912;51.376;6.126;2022-09-17T05:15:21;4.87;;;1.67;;
15624;SDS011;7912;51.376;6.126;2022-09-17T05:17:50;7.03;;;1.90;;
15624;SDS011;7912;51.376;6.126;2022-09-17T05:20:17;7.07;;;2.00;;
15624;SDS011;7912;51.376;6.126;2022-09-17T05:22:46;6.50;;;2.03;;
15624;SDS011;7912;51.376;6.126;2022-09-17T05:25:17;6.37;;;1.60;;
15624;SDS011;7912;51.376;6.126;2022-09-17T05:27:51;7.40;;;1.77;;
15624;SDS011;7912;51.376;6.126;2022-09-17T05:30:19;4.97;;;1.57;;
15624;SDS011;7912;51.376;6.126;2022-09-17T05:32:47;3.20;;;1.60;;
15624;SDS011;7912;51.376;6.126;2022-09-17T05:35:23;7.73;;;1.60;;
15624;SDS011;7912;51.376;6.126;2022-09-17T05:37:50;3.13;;;1.40;;
15624;SDS011;7912;51.376;6.126;2022-09-17T05:40:22;5.53;;;1.60;;
15624;SDS011;7912;51.376;6.126;2022-09-17T05:42:49;7.50;;;1.70;;
15624;SDS011;7912;51.376;6.126;2022-09-17T05:45:17;3.67;;;1.60;;
15624;SDS011;7912;51.376;6.126;2022-09-17T05:47:44;6.00;;;1.70;;
15624;SDS011;7912;51.376;6.126;2022-09-17T05:50:11;3.77;;;1.50;;
15624;SDS011;7912;51.376;6.126;2022-09-17T05:52:39;5.37;;;1.80;;
15624;SDS011;7912;51.376;6.126;2022-09-17T05:55:06;4.13;;;1.67;;
15624;SDS011;7912;51.376;6.126;2022-09-17T05:57:33;5.30;;;1.63;;
15624;SDS011;7912;51.376;6.126;2022-09-17T06:00:01;5.20;;;2.07;;
15624;SDS011;7912;51.376;6.126;2022-09-17T06:02:29;4.20;;;1.57;;
15624;SDS011;7912;51.376;6.126;2022-09-17T06:04:56;8.57;;;2.30;;
15624;SDS011;7912;51.376;6.126;2022-09-17T06:07:27;7.47;;;2.80;;
15624;SDS011;7912;51.376;6.126;2022-09-17T06:09:54;6.17;;;1.90;;
15624;SDS011;7912;51.376;6.126;2022-09-17T06:12:21;7.40;;;2.23;;
15624;SDS011;7912;51.376;6.126;2022-09-17T06:14:49;5.47;;;1.87;;
15624;SDS011;7912;51.376;6.126;2022-09-17T06:17:16;7.20;;;2.17;;
15624;SDS011;7912;51.376;6.126;2022-09-17T06:19:47;7.40;;;1.80;;
15624;SDS011;7912;51.376;6.126;2022-09-17T06:22:16;6.33;;;1.73;;
15624;SDS011;7912;51.376;6.126;2022-09-17T06:24:45;7.30;;;2.00;;
15624;SDS011;7912;51.376;6.126;2022-09-17T06:27:12;6.97;;;2.07;;
15624;SDS011;7912;51.376;6.126;2022-09-17T06:29:40;5.63;;;1.90;;
15624;SDS011;7912;51.376;6.126;2022-09-17T06:32:07;6.07;;;1.97;;
15624;SDS011;7912;51.376;6.126;2022-09-17T06:34:38;7.03;;;2.30;;
15624;SDS011;7912;51.376;6.126;2022-09-17T06:37:05;7.90;;;1.90;;
15624;SDS011;7912;51.376;6.126;2022-09-17T06:39:32;6.10;;;3.07;;
15624;SDS011;7912;51.376;6.126;2022-09-17T06:41:59;6.30;;;2.03;;
15624;SDS011;7912;51.376;6.126;2022-09-17T06:44:27;9.27;;;2.43;;
15624;SDS011;7912;51.376;6.126;2022-09-17T06:46:54;6.73;;;2.27;;
15624;SDS011;7912;51.376;6.126;2022-09-17T06:49:22;10.03;;;2.13;;
15624;SDS011;7912;51.376;6.126;2022-09-17T06:51:49;6.23;;;2.10;;
15624;SDS011;7912;51.376;6.126;2022-09-17T06:54:16;7.10;;;2.00;;
15624;SDS011;7912;51.376;6.126;2022-09-17T06:56:47;7.77;;;1.77;;
15624;SDS011;7912;51.376;6.126;2022-09-17T06:59:14;5.73;;;1.93;;
15624;SDS011;7912;51.376;6.126;2022-09-17T07:01:41;5.77;;;2.03;;
15624;SDS011;7912;51.376;6.126;2022-09-17T07:04:09;4.60;;;1.70;;
15624;SDS011;7912;51.376;6.126;2022-09-17T07:06:36;4.37;;;1.67;;
15624;SDS011;7912;51.376;6.126;2022-09-17T07:09:03;4.90;;;1.60;;
15624;SDS011;7912;51.376;6.126;2022-09-17T07:11:36;7.60;;;2.10;;
15624;SDS011;7912;51.376;6.126;2022-09-17T07:14:04;7.23;;;2.17;;
15624;SDS011;7912;51.376;6.126;2022-09-17T07:16:32;6.70;;;1.60;;
15624;SDS011;7912;51.376;6.126;2022-09-17T07:19:01;5.93;;;1.90;;
15624;SDS011;7912;51.376;6.126;2022-09-17T07:21:29;7.07;;;1.90;;
15624;SDS011;7912;51.376;6.126;2022-09-17T07:23:57;7.03;;;1.70;;
15624;SDS011;7912;51.376;6.126;2022-09-17T07:26:24;6.67;;;1.70;;
15624;SDS011;7912;51.376;6.126;2022-09-17T07:28:51;4.60;;;1.70;;
15624;SDS011;7912;51.376;6.126;2022-09-17T07:31:19;5.77;;;1.60;;
15624;SDS011;7912;51.376;6.126;2022-09-17T07:33:46;6.57;;;1.60;;
15624;SDS011;7912;51.376;6.126;2022-09-17T07:36:14;7.17;;;1.73;;
15624;SDS011;7912;51.376;6.126;2022-09-17T07:38:43;6.10;;;2.00;;
15624;SDS011;7912;51.376;6.126;2022-09-17T07:41:17;7.63;;;1.80;;
15624;SDS011;7912;51.376;6.126;2022-09-17T07:43:45;7.73;;;2.03;;
15624;SDS011;7912;51.376;6.126;2022-09-17T07:46:14;6.57;;;1.83;;
15624;SDS011;7912;51.376;6.126;2022-09-17T07:48:44;4.93;;;1.80;;
15624;SDS011;7912;51.376;6.126;2022-09-17T07:51:20;7.73;;;2.30;;
15624;SDS011;7912;51.376;6.126;2022-09-17T07:53:51;7.00;;;1.97;;
15624;SDS011;7912;51.376;6.126;2022-09-17T07:56:20;5.47;;;1.80;;
15624;SDS011;7912;51.376;6.126;2022-09-17T07:58:47;6.13;;;1.80;;
15624;SDS011;7912;51.376;6.126;2022-09-17T08:01:15;4.73;;;1.40;;
15624;SDS011;7912;51.376;6.126;2022-09-17T08:03:46;4.57;;;1.63;;
15624;SDS011;7912;51.376;6.126;2022-09-17T08:06:17;5.70;;;1.50;;
15624;SDS011;7912;51.376;6.126;2022-09-17T08:08:52;3.63;;;1.50;;
15624;SDS011;7912;51.376;6.126;2022-09-17T08:11:26;4.53;;;1.50;;
15624;SDS011;7912;51.376;6.126;2022-09-17T08:14:16;4.73;;;1.40;;
15624;SDS011;7912;51.376;6.126;2022-09-17T08:16:43;5.97;;;1.40;;
15624;SDS011;7912;51.376;6.126;2022-09-17T08:19:12;5.17;;;1.70;;
15624;SDS011;7912;51.376;6.126;2022-09-17T08:21:39;5.77;;;2.30;;
15624;SDS011;7912;51.376;6.126;2022-09-17T08:24:07;3.63;;;1.50;;
15624;SDS011;7912;51.376;6.126;2022-09-17T08:26:34;2.93;;;1.47;;
15624;SDS011;7912;51.376;6.126;2022-09-17T08:29:01;5.07;;;1.60;;
15624;SDS011;7912;51.376;6.126;2022-09-17T08:31:28;4.33;;;1.63;;
15624;SDS011;7912;51.376;6.126;2022-09-17T08:33:58;4.27;;;1.60;;
15624;SDS011;7912;51.376;6.126;2022-09-17T08:36:26;2.33;;;1.40;;
15624;SDS011;7912;51.376;6.126;2022-09-17T08:38:54;4.17;;;1.43;;
15624;SDS011;7912;51.376;6.126;2022-09-17T08:47:13;3.60;;;1.20;;
15624;SDS011;7912;51.376;6.126;2022-09-17T08:49:56;4.03;;;1.13;;
15624;SDS011;7912;51.376;6.126;2022-09-17T08:58:32;2.10;;;1.10;;
15624;SDS011;7912;51.376;6.126;2022-09-17T09:04:16;3.43;;;1.30;;
15624;SDS011;7912;51.376;6.126;2022-09-17T09:07:10;2.37;;;1.30;;
15624;SDS011;7912;51.376;6.126;2022-09-17T09:09:45;2.47;;;1.33;;
15624;SDS011;7912;51.376;6.126;2022-09-17T09:12:43;2.87;;;1.13;;
15624;SDS011;7912;51.376;6.126;2022-09-17T09:18:25;4.13;;;1.30;;
15624;SDS011;7912;51.376;6.126;2022-09-17T09:21:17;4.17;;;1.40;;
15624;SDS011;7912;51.376;6.126;2022-09-17T09:23:58;4.53;;;1.50;;
15624;SDS011;7912;51.376;6.126;2022-09-17T09:27:18;3.53;;;1.30;;
15624;SDS011;7912;51.376;6.126;2022-09-17T09:32:54;4.30;;;1.40;;
15624;SDS011;7912;51.376;6.126;2022-09-17T09:35:43;4.20;;;1.40;;
15624;SDS011;7912;51.376;6.126;2022-09-17T09:38:13;4.40;;;1.13;;
15624;SDS011;7912;51.376;6.126;2022-09-17T09:41:12;2.83;;;1.00;;
15624;SDS011;7912;51.376;6.126;2022-09-17T09:44:09;3.83;;;1.30;;
15624;SDS011;7912;51.376;6.126;2022-09-17T09:46:45;3.67;;;1.10;;
15624;SDS011;7912;51.376;6.126;2022-09-17T09:56:00;2.87;;;1.30;;
15624;SDS011;7912;51.376;6.126;2022-09-17T09:58:30;2.97;;;1.10;;
15624;SDS011;7912;51.376;6.126;2022-09-17T10:01:15;2.93;;;1.20;;
15624;SDS011;7912;51.376;6.126;2022-09-17T10:03:46;6.20;;;1.43;;
15624;SDS011;7912;51.376;6.126;2022-09-17T10:06:17;2.03;;;1.40;;
15624;SDS011;7912;51.376;6.126;2022-09-17T10:11:20;3.20;;;1.30;;
15624;SDS011;7912;51.376;6.126;2022-09-17T10:14:12;3.20;;;1.33;;
15624;SDS011;7912;51.376;6.126;2022-09-17T10:17:09;2.13;;;1.10;;
15624;SDS011;7912;51.376;6.126;2022-09-17T10:19:39;3.43;;;1.30;;
15624;SDS011;7912;51.376;6.126;2022-09-17T10:24:50;4.80;;;1.33;;
15624;SDS011;7912;51.376;6.126;2022-09-17T10:27:21;3.37;;;1.00;;
15624;SDS011;7912;51.376;6.126;2022-09-17T10:32:28;3.10;;;1.40;;
15624;SDS011;7912;51.376;6.126;2022-09-17T10:37:53;3.30;;;1.37;;
15624;SDS011;7912;51.376;6.126;2022-09-17T10:40:24;4.10;;;1.20;;
15624;SDS011;7912;51.376;6.126;2022-09-17T10:45:52;3.80;;;1.10;;
15624;SDS011;7912;51.376;6.126;2022-09-17T10:48:26;3.43;;;1.13;;
15624;SDS011;7912;51.376;6.126;2022-09-17T10:50:58;3.67;;;1.33;;
15624;SDS011;7912;51.376;6.126;2022-09-17T10:53:28;2.83;;;1.23;;
15624;SDS011;7912;51.376;6.126;2022-09-17T10:56:13;3.83;;;1.50;;
15624;SDS011;7912;51.376;6.126;2022-09-17T11:11:08;2.20;;;1.07;;
15624;SDS011;7912;51.376;6.126;2022-09-17T11:16:41;4.93;;;1.50;;
15624;SDS011;7912;51.376;6.126;2022-09-17T11:19:57;1.97;;;0.97;;
15624;SDS011;7912;51.376;6.126;2022-09-17T11:25:53;2.87;;;1.00;;
15624;SDS011;7912;51.376;6.126;2022-09-17T11:28:57;1.87;;;0.90;;
15624;SDS011;7912;51.376;6.126;2022-09-17T11:35:08;4.73;;;1.30;;
15624;SDS011;7912;51.376;6.126;2022-09-17T11:40:39;2.30;;;0.90;;
15624;SDS011;7912;51.376;6.126;2022-09-17T11:48:58;2.27;;;1.10;;
15624;SDS011;7912;51.376;6.126;2022-09-17T11:52:03;1.47;;;0.73;;
15624;SDS011;7912;51.376;6.126;2022-09-17T11:57:28;1.77;;;0.83;;
15624;SDS011;7912;51.376;6.126;2022-09-17T12:05:53;1.00;;;0.70;;
15624;SDS011;7912;51.376;6.126;2022-09-17T12:08:39;4.50;;;0.80;;
15624;SDS011;7912;51.376;6.126;2022-09-17T12:14:38;1.80;;;0.87;;
15624;SDS011;7912;51.376;6.126;2022-09-17T12:17:10;1.03;;;0.83;;
15624;SDS011;7912;51.376;6.126;2022-09-17T12:19:51;1.83;;;0.90;;
15624;SDS011;7912;51.376;6.126;2022-09-17T12:22:26;2.07;;;1.00;;
15624;SDS011;7912;51.376;6.126;2022-09-17T12:25:09;1.30;;;0.80;;
15624;SDS011;7912;51.376;6.126;2022-09-17T12:30:39;2.67;;;1.10;;
15624;SDS011;7912;51.376;6.126;2022-09-17T12:33:53;1.70;;;0.80;;
15624;SDS011;7912;51.376;6.126;2022-09-17T12:36:35;1.47;;;0.70;;
15624;SDS011;7912;51.376;6.126;2022-09-17T12:53:21;3.33;;;1.20;;
15624;SDS011;7912;51.376;6.126;2022-09-17T12:56:00;2.30;;;1.00;;
15624;SDS011;7912;51.376;6.126;2022-09-17T12:59:00;2.67;;;1.10;;
15624;SDS011;7912;51.376;6.126;2022-09-17T13:04:49;4.27;;;1.10;;
15624;SDS011;7912;51.376;6.126;2022-09-17T13:13:33;3.93;;;1.27;;
15624;SDS011;7912;51.376;6.126;2022-09-17T13:16:40;3.20;;;1.47;;
15624;SDS011;7912;51.376;6.126;2022-09-17T13:22:21;4.23;;;1.57;;
15624;SDS011;7912;51.376;6.126;2022-09-17T13:25:09;2.33;;;1.30;;
15624;SDS011;7912;51.376;6.126;2022-09-17T13:27:39;2.33;;;0.90;;
15624;SDS011;7912;51.376;6.126;2022-09-17T13:30:08;2.43;;;1.20;;
15624;SDS011;7912;51.376;6.126;2022-09-17T13:37:42;1.83;;;1.10;;
15624;SDS011;7912;51.376;6.126;2022-09-17T13:40:19;2.23;;;1.20;;
15624;SDS011;7912;51.376;6.126;2022-09-17T13:42:51;3.20;;;1.40;;
15624;SDS011;7912;51.376;6.126;2022-09-17T13:45:23;4.77;;;1.30;;
15624;SDS011;7912;51.376;6.126;2022-09-17T13:48:01;3.80;;;1.30;;
15624;SDS011;7912;51.376;6.126;2022-09-17T13:50:38;3.37;;;1.17;;
15624;SDS011;7912;51.376;6.126;2022-09-17T13:55:42;3.37;;;1.40;;
15624;SDS011;7912;51.376;6.126;2022-09-17T14:12:22;5.70;;;1.63;;
15624;SDS011;7912;51.376;6.126;2022-09-17T14:21:10;6.23;;;2.20;;
15624;SDS011;7912;51.376;6.126;2022-09-17T14:23:49;3.40;;;1.50;;
15624;SDS011;7912;51.376;6.126;2022-09-17T14:35:20;4.73;;;2.00;;
15624;SDS011;7912;51.376;6.126;2022-09-17T14:46:14;6.70;;;2.50;;
15624;SDS011;7912;51.376;6.126;2022-09-17T14:48:50;7.53;;;3.50;;
15624;SDS011;7912;51.376;6.126;2022-09-17T14:56:31;8.27;;;3.43;;
15624;SDS011;7912;51.376;6.126;2022-09-17T14:59:08;6.13;;;3.10;;
15624;SDS011;7912;51.376;6.126;2022-09-17T15:01:53;7.27;;;2.60;;
15624;SDS011;7912;51.376;6.126;2022-09-17T15:04:22;4.83;;;2.10;;
15624;SDS011;7912;51.376;6.126;2022-09-17T15:07:05;5.80;;;1.87;;
15624;SDS011;7912;51.376;6.126;2022-09-17T15:09:38;4.13;;;1.40;;
15624;SDS011;7912;51.376;6.126;2022-09-17T15:12:05;4.57;;;1.67;;
15624;SDS011;7912;51.376;6.126;2022-09-17T15:14:33;3.57;;;1.47;;
15624;SDS011;7912;51.376;6.126;2022-09-17T15:19:52;3.27;;;1.50;;
15624;SDS011;7912;51.376;6.126;2022-09-17T15:25:17;2.10;;;1.40;;
15624;SDS011;7912;51.376;6.126;2022-09-17T15:30:57;5.47;;;1.80;;
15624;SDS011;7912;51.376;6.126;2022-09-17T15:33:25;4.87;;;1.67;;
15624;SDS011;7912;51.376;6.126;2022-09-17T15:39:06;5.40;;;1.50;;
15624;SDS011;7912;51.376;6.126;2022-09-17T15:41:57;4.83;;;1.70;;
15624;SDS011;7912;51.376;6.126;2022-09-17T15:44:25;5.20;;;1.83;;
15624;SDS011;7912;51.376;6.126;2022-09-17T15:53:09;4.43;;;1.67;;
15624;SDS011;7912;51.376;6.126;2022-09-17T15:58:29;4.30;;;1.80;;
15624;SDS011;7912;51.376;6.126;2022-09-17T16:08:58;3.57;;;1.60;;
15624;SDS011;7912;51.376;6.126;2022-09-17T16:11:28;4.53;;;1.70;;
15624;SDS011;7912;51.376;6.126;2022-09-17T16:13:58;6.40;;;2.13;;
15624;SDS011;7912;51.376;6.126;2022-09-17T16:16:34;5.43;;;1.80;;
15624;SDS011;7912;51.376;6.126;2022-09-17T16:19:03;6.43;;;1.80;;
15624;SDS011;7912;51.376;6.126;2022-09-17T16:21:31;5.67;;;1.83;;
15624;SDS011;7912;51.376;6.126;2022-09-17T16:23:58;4.40;;;1.70;;
15624;SDS011;7912;51.376;6.126;2022-09-17T16:26:28;3.93;;;1.83;;
15624;SDS011;7912;51.376;6.126;2022-09-17T16:29:04;4.57;;;1.83;;
15624;SDS011;7912;51.376;6.126;2022-09-17T16:31:39;4.97;;;2.30;;
15624;SDS011;7912;51.376;6.126;2022-09-17T16:34:06;5.83;;;2.17;;
15624;SDS011;7912;51.376;6.126;2022-09-17T16:36:33;6.57;;;2.13;;
15624;SDS011;7912;51.376;6.126;2022-09-17T16:39:00;5.97;;;2.40;;
15624;SDS011;7912;51.376;6.126;2022-09-17T16:41:28;7.03;;;3.47;;
15624;SDS011;7912;51.376;6.126;2022-09-17T16:43:55;7.43;;;3.00;;
15624;SDS011;7912;51.376;6.126;2022-09-17T16:46:24;7.07;;;2.17;;
15624;SDS011;7912;51.376;6.126;2022-09-17T16:48:51;4.10;;;2.20;;
15624;SDS011;7912;51.376;6.126;2022-09-17T16:51:18;6.53;;;2.60;;
15624;SDS011;7912;51.376;6.126;2022-09-17T16:53:45;5.80;;;2.37;;
15624;SDS011;7912;51.376;6.126;2022-09-17T16:56:13;5.10;;;2.17;;
15624;SDS011;7912;51.376;6.126;2022-09-17T16:58:41;7.40;;;2.50;;
15624;SDS011;7912;51.376;6.126;2022-09-17T17:01:09;4.73;;;2.50;;
15624;SDS011;7912;51.376;6.126;2022-09-17T17:03:39;6.07;;;1.90;;
15624;SDS011;7912;51.376;6.126;2022-09-17T17:06:20;5.73;;;2.00;;
15624;SDS011;7912;51.376;6.126;2022-09-17T17:08:47;4.63;;;1.87;;
15624;SDS011;7912;51.376;6.126;2022-09-17T17:11:15;6.40;;;2.90;;
15624;SDS011;7912;51.376;6.126;2022-09-17T17:13:42;8.70;;;3.97;;
15624;SDS011;7912;51.376;6.126;2022-09-17T17:16:11;8.73;;;3.20;;
15624;SDS011;7912;51.376;6.126;2022-09-17T17:18:41;10.63;;;4.90;;
15624;SDS011;7912;51.376;6.126;2022-09-17T17:21:12;7.67;;;2.73;;
15624;SDS011;7912;51.376;6.126;2022-09-17T17:23:40;6.43;;;3.63;;
15624;SDS011;7912;51.376;6.126;2022-09-17T17:26:13;7.50;;;3.93;;
15624;SDS011;7912;51.376;6.126;2022-09-17T17:28:43;6.80;;;2.87;;
15624;SDS011;7912;51.376;6.126;2022-09-17T17:31:10;6.80;;;3.37;;
15624;SDS011;7912;51.376;6.126;2022-09-17T17:33:37;12.57;;;5.60;;
15624;SDS011;7912;51.376;6.126;2022-09-17T17:36:05;8.07;;;4.23;;
15624;SDS011;7912;51.376;6.126;2022-09-17T17:38:34;5.77;;;2.57;;
15624;SDS011;7912;51.376;6.126;2022-09-17T17:41:06;7.90;;;2.37;;
15624;SDS011;7912;51.376;6.126;2022-09-17T17:43:35;7.33;;;2.23;;
15624;SDS011;7912;51.376;6.126;2022-09-17T17:46:06;9.57;;;2.20;;
15624;SDS011;7912;51.376;6.126;2022-09-17T17:48:36;6.33;;;2.00;;
15624;SDS011;7912;51.376;6.126;2022-09-17T17:51:04;8.67;;;2.70;;
15624;SDS011;7912;51.376;6.126;2022-09-17T17:53:34;5.30;;;2.03;;
15624;SDS011;7912;51.376;6.126;2022-09-17T17:56:03;5.13;;;1.80;;
15624;SDS011;7912;51.376;6.126;2022-09-17T17:58:33;4.07;;;1.77;;
15624;SDS011;7912;51.376;6.126;2022-09-17T18:01:12;5.73;;;1.93;;
15624;SDS011;7912;51.376;6.126;2022-09-17T18:03:47;7.20;;;2.43;;
15624;SDS011;7912;51.376;6.126;2022-09-17T18:06:15;4.63;;;1.70;;
15624;SDS011;7912;51.376;6.126;2022-09-17T18:08:44;7.73;;;2.03;;
15624;SDS011;7912;51.376;6.126;2022-09-17T18:11:11;6.27;;;1.87;;
15624;SDS011;7912;51.376;6.126;2022-09-17T18:13:39;7.07;;;2.10;;
15624;SDS011;7912;51.376;6.126;2022-09-17T18:16:08;5.60;;;1.93;;
15624;SDS011;7912;51.376;6.126;2022-09-17T18:18:41;4.40;;;1.80;;
15624;SDS011;7912;51.376;6.126;2022-09-17T18:21:18;7.13;;;2.10;;
15624;SDS011;7912;51.376;6.126;2022-09-17T18:23:48;3.63;;;1.60;;
15624;SDS011;7912;51.376;6.126;2022-09-17T18:26:20;8.23;;;1.80;;
15624;SDS011;7912;51.376;6.126;2022-09-17T18:28:50;8.30;;;2.00;;
15624;SDS011;7912;51.376;6.126;2022-09-17T18:31:34;8.57;;;1.80;;
15624;SDS011;7912;51.376;6.126;2022-09-17T18:36:49;5.60;;;1.70;;
15624;SDS011;7912;51.376;6.126;2022-09-17T18:39:18;3.00;;;1.63;;
15624;SDS011;7912;51.376;6.126;2022-09-17T18:42:07;4.00;;;1.27;;
15624;SDS011;7912;51.376;6.126;2022-09-17T18:44:35;2.57;;;1.30;;
15624;SDS011;7912;51.376;6.126;2022-09-17T18:47:02;3.60;;;1.40;;
15624;SDS011;7912;51.376;6.126;2022-09-17T18:49:30;3.77;;;1.37;;
15624;SDS011;7912;51.376;6.126;2022-09-17T18:51:58;3.07;;;1.23;;
15624;SDS011;7912;51.376;6.126;2022-09-17T18:54:26;4.00;;;1.30;;
15624;SDS011;7912;51.376;6.126;2022-09-17T18:56:53;2.43;;;1.30;;
15624;SDS011;7912;51.376;6.126;2022-09-17T19:02:25;4.90;;;1.40;;
15624;SDS011;7912;51.376;6.126;2022-09-17T19:04:53;2.93;;;1.33;;
15624;SDS011;7912;51.376;6.126;2022-09-17T19:07:22;4.30;;;1.40;;
15624;SDS011;7912;51.376;6.126;2022-09-17T19:09:49;3.63;;;1.53;;
15624;SDS011;7912;51.376;6.126;2022-09-17T19:12:16;4.83;;;1.50;;
15624;SDS011;7912;51.376;6.126;2022-09-17T19:14:43;3.33;;;1.40;;
15624;SDS011;7912;51.376;6.126;2022-09-17T19:17:10;3.43;;;1.50;;
15624;SDS011;7912;51.376;6.126;2022-09-17T19:19:37;6.97;;;1.60;;
15624;SDS011;7912;51.376;6.126;2022-09-17T19:22:04;4.17;;;1.80;;
15624;SDS011;7912;51.376;6.126;2022-09-17T19:24:33;3.50;;;1.50;;
15624;SDS011;7912;51.376;6.126;2022-09-17T19:27:01;4.73;;;1.50;;
15624;SDS011;7912;51.376;6.126;2022-09-17T19:29:29;4.23;;;1.40;;
15624;SDS011;7912;51.376;6.126;2022-09-17T19:31:56;4.67;;;1.53;;
15624;SDS011;7912;51.376;6.126;2022-09-17T19:34:23;2.80;;;1.27;;
15624;SDS011;7912;51.376;6.126;2022-09-17T19:36:50;4.60;;;1.40;;
15624;SDS011;7912;51.376;6.126;2022-09-17T19:39:18;2.07;;;1.30;;
15624;SDS011;7912;51.376;6.126;2022-09-17T19:41:45;2.67;;;1.43;;
15624;SDS011;7912;51.376;6.126;2022-09-17T19:44:12;2.67;;;1.30;;
15624;SDS011;7912;51.376;6.126;2022-09-17T19:46:39;4.20;;;1.20;;
15624;SDS011;7912;51.376;6.126;2022-09-17T19:49:06;4.77;;;1.40;;
15624;SDS011;7912;51.376;6.126;2022-09-17T19:51:35;3.37;;;1.07;;